SVA152 LOWW-OERK
Flight info
| Callsign | SVA152 |
|---|---|
| Flight time | 5h 20m |
| Altitude | 35000 |
| Route | ARSIN1C ARSIN DCT NALOX DCT OSDUK DCT SIVLA DCT VEBAR DCT VABEK UL603 OLOTA DCT DISOR UL608 FSK UG18 MES UL609 RDS UL995 VANZA DCT RASDA A16 CVO L315 OBTAV/N0457F370 L315 HGD M872 WEJ L604 GAS G662 SIVIS SIVIS1A |
| Aircraft | A320/M-SDE3FGHIRWY/LB1 |
Departure
| Time | 2026-04-24 16:43 |
|---|---|
| Airport | Vienna International Airport (LOWW) |
Arrival
| Time | 2026-04-24 22:03 |
|---|---|
| Airport | King Khalid International Airport (OERK) |
| Time | Latitude | Longitude | Altitude | Speed | Heading |
|---|---|---|---|---|---|
| 2026-04-24 16:24 | 48.11778 | 16.56185 | 598 ft | 0 kts | 338° |
| 2026-04-24 16:33 | 48.11767 | 16.56191 | 611 ft | 2 kts | 338° |
| 2026-04-24 16:33 | 48.11752 | 16.56201 | 593 ft | 2 kts | 338° |
| 2026-04-24 16:34 | 48.11736 | 16.56211 | 598 ft | 2 kts | 338° |
| 2026-04-24 16:34 | 48.11719 | 16.56220 | 598 ft | 3 kts | 335° |
| 2026-04-24 16:34 | 48.11705 | 16.56235 | 598 ft | 3 kts | 300° |
| 2026-04-24 16:34 | 48.11699 | 16.56260 | 598 ft | 3 kts | 264° |
| 2026-04-24 16:35 | 48.11704 | 16.56285 | 598 ft | 2 kts | 229° |
| 2026-04-24 16:35 | 48.11704 | 16.56286 | 598 ft | 0 kts | 227° |
| 2026-04-24 16:36 | 48.11698 | 16.56276 | 598 ft | 3 kts | 227° |
| 2026-04-24 16:36 | 48.11676 | 16.56255 | 598 ft | 5 kts | 207° |
| 2026-04-24 16:37 | 48.11640 | 16.56223 | 599 ft | 7 kts | 214° |
| 2026-04-24 16:37 | 48.11617 | 16.56198 | 599 ft | 5 kts | 216° |
| 2026-04-24 16:37 | 48.11573 | 16.56188 | 601 ft | 10 kts | 160° |
| 2026-04-24 16:37 | 48.11539 | 16.56261 | 601 ft | 8 kts | 116° |
| 2026-04-24 16:38 | 48.11511 | 16.56346 | 600 ft | 10 kts | 116° |
| 2026-04-24 16:38 | 48.11475 | 16.56456 | 598 ft | 13 kts | 116° |
| 2026-04-24 16:38 | 48.11441 | 16.56564 | 599 ft | 10 kts | 116° |
| 2026-04-24 16:38 | 48.11405 | 16.56675 | 601 ft | 13 kts | 116° |
| 2026-04-24 16:39 | 48.11365 | 16.56798 | 602 ft | 12 kts | 116° |
| 2026-04-24 16:39 | 48.11331 | 16.56902 | 605 ft | 10 kts | 116° |
| 2026-04-24 16:39 | 48.11299 | 16.57002 | 618 ft | 13 kts | 116° |
| 2026-04-24 16:39 | 48.11260 | 16.57119 | 614 ft | 12 kts | 116° |
| 2026-04-24 16:40 | 48.11228 | 16.57215 | 611 ft | 9 kts | 116° |
| 2026-04-24 16:40 | 48.11193 | 16.57322 | 617 ft | 15 kts | 116° |
| 2026-04-24 16:40 | 48.11147 | 16.57463 | 603 ft | 15 kts | 116° |
| 2026-04-24 16:40 | 48.11092 | 16.57530 | 619 ft | 9 kts | 188° |
| 2026-04-24 16:41 | 48.11045 | 16.57500 | 605 ft | 6 kts | 208° |
| 2026-04-24 16:41 | 48.11013 | 16.57475 | 610 ft | 9 kts | 207° |
| 2026-04-24 16:41 | 48.10964 | 16.57418 | 610 ft | 9 kts | 248° |
| 2026-04-24 16:41 | 48.10982 | 16.57323 | 606 ft | 11 kts | 296° |
| 2026-04-24 16:42 | 48.11069 | 16.57057 | 608 ft | 59 kts | 296° |
| 2026-04-24 16:42 | 48.11342 | 16.56220 | 599 ft | 118 kts | 296° |
| 2026-04-24 16:42 | 48.11772 | 16.54900 | 634 ft | 159 kts | 295° |
| 2026-04-24 16:42 | 48.12258 | 16.53417 | 1183 ft | 158 kts | 284° |
| 2026-04-24 16:43 | 48.12071 | 16.51824 | 1662 ft | 168 kts | 240° |
| 2026-04-24 16:43 | 48.11126 | 16.50694 | 2118 ft | 179 kts | 221° |
| 2026-04-24 16:43 | 48.10060 | 16.49625 | 2441 ft | 194 kts | 223° |
| 2026-04-24 16:43 | 48.08906 | 16.48410 | 2634 ft | 218 kts | 222° |
| 2026-04-24 16:44 | 48.07464 | 16.47357 | 2872 ft | 250 kts | 192° |
| 2026-04-24 16:44 | 48.05628 | 16.47476 | 3170 ft | 278 kts | 175° |
| 2026-04-24 16:44 | 48.03665 | 16.47870 | 3746 ft | 288 kts | 175° |
| 2026-04-24 16:44 | 48.01668 | 16.48269 | 4520 ft | 292 kts | 175° |
| 2026-04-24 16:45 | 47.99640 | 16.48665 | 5255 ft | 296 kts | 175° |
| 2026-04-24 16:45 | 47.97583 | 16.48869 | 6006 ft | 296 kts | 189° |
| 2026-04-24 16:45 | 47.95538 | 16.48072 | 6745 ft | 292 kts | 211° |
| 2026-04-24 16:45 | 47.93730 | 16.46673 | 7436 ft | 294 kts | 213° |
| 2026-04-24 16:46 | 47.91786 | 16.45153 | 8166 ft | 299 kts | 212° |
| 2026-04-24 16:46 | 47.90144 | 16.43915 | 8747 ft | 305 kts | 206° |
| 2026-04-24 16:46 | 47.87946 | 16.43034 | 9459 ft | 315 kts | 188° |
| 2026-04-24 16:46 | 47.85747 | 16.43111 | 10110 ft | 320 kts | 169° |
| 2026-04-24 16:47 | 47.83492 | 16.43935 | 10380 ft | 339 kts | 164° |
| 2026-04-24 16:47 | 47.81150 | 16.44873 | 10522 ft | 361 kts | 164° |
| 2026-04-24 16:47 | 47.78674 | 16.45872 | 10636 ft | 382 kts | 164° |
| 2026-04-24 16:47 | 47.75927 | 16.46975 | 10863 ft | 399 kts | 164° |
| 2026-04-24 16:48 | 47.73134 | 16.48085 | 11415 ft | 404 kts | 164° |
| 2026-04-24 16:48 | 47.70405 | 16.49162 | 12021 ft | 407 kts | 163° |
| 2026-04-24 16:48 | 47.67714 | 16.50631 | 12639 ft | 408 kts | 152° |
| 2026-04-24 16:48 | 47.65295 | 16.52852 | 13255 ft | 407 kts | 139° |
| 2026-04-24 16:49 | 47.63240 | 16.55717 | 13853 ft | 405 kts | 127° |
| 2026-04-24 16:49 | 47.61610 | 16.59101 | 14383 ft | 403 kts | 116° |
| 2026-04-24 16:49 | 47.60416 | 16.62838 | 14907 ft | 403 kts | 110° |
| 2026-04-24 16:49 | 47.59229 | 16.66620 | 15438 ft | 408 kts | 117° |
| 2026-04-24 16:50 | 47.58180 | 16.68935 | 15785 ft | 413 kts | 126° |
| 2026-04-24 16:50 | 47.55343 | 16.72855 | 16485 ft | 423 kts | 144° |
| 2026-04-24 16:50 | 47.52823 | 16.74828 | 16979 ft | 428 kts | 157° |
| 2026-04-24 16:50 | 47.49664 | 16.76026 | 17533 ft | 434 kts | 172° |
| 2026-04-24 16:51 | 47.46680 | 16.76359 | 18023 ft | 437 kts | 175° |
| 2026-04-24 16:51 | 47.44666 | 16.76551 | 18338 ft | 438 kts | 175° |
| 2026-04-24 16:51 | 47.40498 | 16.76939 | 18898 ft | 442 kts | 175° |
| 2026-04-24 16:51 | 47.37420 | 16.77221 | 19323 ft | 444 kts | 175° |
| 2026-04-24 16:52 | 47.34336 | 16.77509 | 19735 ft | 445 kts | 175° |
| 2026-04-24 16:52 | 47.31243 | 16.77802 | 20146 ft | 447 kts | 175° |
| 2026-04-24 16:52 | 47.28127 | 16.78095 | 20545 ft | 449 kts | 175° |
| 2026-04-24 16:52 | 47.26029 | 16.78292 | 20804 ft | 450 kts | 175° |
| 2026-04-24 16:53 | 47.22715 | 16.78608 | 21211 ft | 452 kts | 175° |
| 2026-04-24 16:53 | 47.19431 | 16.78925 | 21595 ft | 454 kts | 175° |
| 2026-04-24 16:53 | 47.16281 | 16.79227 | 21952 ft | 455 kts | 175° |
| 2026-04-24 16:53 | 47.13120 | 16.79529 | 22314 ft | 457 kts | 175° |
| 2026-04-24 16:54 | 47.09936 | 16.79828 | 22646 ft | 459 kts | 175° |
| 2026-04-24 16:54 | 47.06575 | 16.80146 | 22998 ft | 461 kts | 175° |
| 2026-04-24 16:54 | 47.03358 | 16.80456 | 23325 ft | 463 kts | 175° |
| 2026-04-24 16:54 | 47.00181 | 16.80765 | 23629 ft | 465 kts | 175° |
| 2026-04-24 16:55 | 46.96918 | 16.81077 | 23883 ft | 467 kts | 175° |
| 2026-04-24 16:55 | 46.93708 | 16.81381 | 24112 ft | 469 kts | 174° |
| 2026-04-24 16:55 | 46.90487 | 16.82098 | 24334 ft | 470 kts | 165° |
| 2026-04-24 16:55 | 46.87368 | 16.83544 | 24558 ft | 470 kts | 155° |
| 2026-04-24 16:56 | 46.84337 | 16.85790 | 24795 ft | 469 kts | 146° |
| 2026-04-24 16:56 | 46.81566 | 16.88732 | 25043 ft | 468 kts | 137° |
| 2026-04-24 16:56 | 46.79084 | 16.91823 | 25267 ft | 469 kts | 137° |
| 2026-04-24 16:56 | 46.76493 | 16.95041 | 25509 ft | 471 kts | 136° |
| 2026-04-24 16:57 | 46.74001 | 16.98130 | 25730 ft | 472 kts | 137° |
| 2026-04-24 16:57 | 46.71459 | 17.01276 | 25950 ft | 473 kts | 137° |
| 2026-04-24 16:57 | 46.69006 | 17.04305 | 26157 ft | 474 kts | 137° |
| 2026-04-24 16:57 | 46.66421 | 17.07494 | 26374 ft | 476 kts | 137° |
| 2026-04-24 16:58 | 46.63864 | 17.10642 | 26571 ft | 477 kts | 137° |
| 2026-04-24 16:58 | 46.61360 | 17.13723 | 26762 ft | 477 kts | 137° |
| 2026-04-24 16:58 | 46.58823 | 17.16840 | 27031 ft | 476 kts | 137° |
| 2026-04-24 16:58 | 46.56300 | 17.19937 | 27304 ft | 475 kts | 137° |
| 2026-04-24 16:59 | 46.53772 | 17.23041 | 27583 ft | 474 kts | 137° |
| 2026-04-24 16:59 | 46.51935 | 17.25295 | 27786 ft | 474 kts | 137° |
| 2026-04-24 16:59 | 46.46915 | 17.31448 | 28344 ft | 472 kts | 137° |
| 2026-04-24 17:00 | 46.44408 | 17.34508 | 28636 ft | 470 kts | 137° |
| 2026-04-24 17:00 | 46.39350 | 17.40670 | 29212 ft | 468 kts | 137° |
| 2026-04-24 17:00 | 46.36887 | 17.43665 | 29508 ft | 467 kts | 137° |
| 2026-04-24 17:01 | 46.31858 | 17.49768 | 30092 ft | 465 kts | 137° |
| 2026-04-24 17:01 | 46.29386 | 17.52762 | 30335 ft | 464 kts | 137° |
| 2026-04-24 17:02 | 46.24443 | 17.58743 | 30782 ft | 462 kts | 137° |
| 2026-04-24 17:02 | 46.21983 | 17.61717 | 31008 ft | 462 kts | 137° |
| 2026-04-24 17:02 | 46.19509 | 17.64706 | 31221 ft | 462 kts | 137° |
| 2026-04-24 17:02 | 46.17051 | 17.67666 | 31435 ft | 461 kts | 137° |
| 2026-04-24 17:03 | 46.12094 | 17.73620 | 31871 ft | 460 kts | 137° |
| 2026-04-24 17:03 | 46.09633 | 17.76576 | 32085 ft | 460 kts | 137° |
| 2026-04-24 17:03 | 46.07181 | 17.79518 | 32289 ft | 460 kts | 137° |
| 2026-04-24 17:04 | 46.04755 | 17.82427 | 32486 ft | 459 kts | 138° |
| 2026-04-24 17:04 | 45.99704 | 17.88458 | 32911 ft | 459 kts | 138° |
| 2026-04-24 17:04 | 45.97254 | 17.91379 | 33107 ft | 458 kts | 138° |
| 2026-04-24 17:05 | 45.94765 | 17.94348 | 33304 ft | 458 kts | 138° |
| 2026-04-24 17:05 | 45.92309 | 17.97275 | 33505 ft | 458 kts | 138° |
| 2026-04-24 17:05 | 45.87439 | 18.03064 | 33892 ft | 458 kts | 138° |
| 2026-04-24 17:06 | 45.84985 | 18.05969 | 34083 ft | 457 kts | 138° |
| 2026-04-24 17:06 | 45.79940 | 18.11556 | 34404 ft | 460 kts | 147° |
| 2026-04-24 17:06 | 45.77176 | 18.13601 | 34555 ft | 463 kts | 155° |
| 2026-04-24 17:07 | 45.70852 | 18.16254 | 34855 ft | 465 kts | 164° |
| 2026-04-24 17:07 | 45.64567 | 18.18530 | 35041 ft | 467 kts | 163° |
| 2026-04-24 17:08 | 45.58352 | 18.20793 | 35040 ft | 468 kts | 163° |
| 2026-04-24 17:08 | 45.51942 | 18.23123 | 35042 ft | 468 kts | 163° |
| 2026-04-24 17:09 | 45.39316 | 18.27708 | 35042 ft | 468 kts | 163° |
| 2026-04-24 17:10 | 45.26715 | 18.32242 | 35045 ft | 468 kts | 164° |
| 2026-04-24 17:12 | 45.02492 | 18.44668 | 35051 ft | 463 kts | 147° |
| 2026-04-24 18:54 | 35.36968 | 29.29133 | 34971 ft | 456 kts | 143° |
| 2026-04-24 18:55 | 35.30102 | 29.37111 | 34974 ft | 456 kts | 143° |
| 2026-04-24 18:56 | 35.25499 | 29.42435 | 34977 ft | 455 kts | 144° |
| 2026-04-24 18:56 | 35.20893 | 29.47751 | 34973 ft | 455 kts | 144° |
| 2026-04-24 18:57 | 35.16283 | 29.53068 | 34969 ft | 455 kts | 143° |
| 2026-04-24 18:57 | 35.11685 | 29.58379 | 34970 ft | 455 kts | 143° |
| 2026-04-24 18:58 | 35.07077 | 29.63685 | 34964 ft | 456 kts | 143° |
| 2026-04-24 18:58 | 35.02454 | 29.68996 | 34974 ft | 456 kts | 143° |
| 2026-04-24 18:59 | 34.97828 | 29.74290 | 34967 ft | 456 kts | 144° |
| 2026-04-24 18:59 | 34.93222 | 29.79620 | 34963 ft | 457 kts | 143° |
| 2026-04-24 19:00 | 34.88649 | 29.84991 | 34961 ft | 457 kts | 143° |
| 2026-04-24 19:00 | 34.84097 | 29.90318 | 34963 ft | 456 kts | 143° |
| 2026-04-24 19:01 | 34.79516 | 29.95658 | 34956 ft | 457 kts | 143° |
| 2026-04-24 19:01 | 34.74668 | 30.00515 | 34960 ft | 445 kts | 156° |
| 2026-04-24 19:02 | 34.70124 | 30.03306 | 34960 ft | 439 kts | 161° |
| 2026-04-24 19:02 | 34.63693 | 30.07050 | 34970 ft | 439 kts | 161° |
| 2026-04-24 19:03 | 34.58221 | 30.10248 | 34968 ft | 439 kts | 161° |
| 2026-04-24 19:03 | 34.52717 | 30.13454 | 34962 ft | 439 kts | 161° |
| 2026-04-24 19:04 | 34.47215 | 30.16652 | 34964 ft | 439 kts | 161° |
| 2026-04-24 19:04 | 34.41706 | 30.19853 | 34963 ft | 438 kts | 161° |
| 2026-04-24 19:05 | 34.36208 | 30.23040 | 34955 ft | 438 kts | 161° |
| 2026-04-24 19:05 | 34.30709 | 30.26224 | 34952 ft | 438 kts | 161° |
| 2026-04-24 19:06 | 34.25207 | 30.29403 | 34950 ft | 438 kts | 161° |
| 2026-04-24 19:06 | 34.19741 | 30.32554 | 34956 ft | 439 kts | 161° |
| 2026-04-24 19:07 | 34.14236 | 30.35731 | 34953 ft | 439 kts | 161° |
| 2026-04-24 19:07 | 34.09652 | 30.38373 | 34962 ft | 439 kts | 161° |
| 2026-04-24 19:08 | 34.03198 | 30.42085 | 34955 ft | 440 kts | 161° |
| 2026-04-24 19:08 | 33.97670 | 30.45259 | 34957 ft | 440 kts | 161° |
| 2026-04-24 19:09 | 33.92137 | 30.48433 | 34960 ft | 441 kts | 161° |
| 2026-04-24 19:09 | 33.86607 | 30.51612 | 34964 ft | 441 kts | 161° |
| 2026-04-24 19:10 | 33.81098 | 30.54755 | 34964 ft | 441 kts | 161° |
| 2026-04-24 19:10 | 33.75543 | 30.57915 | 34966 ft | 441 kts | 161° |
| 2026-04-24 19:11 | 33.69996 | 30.61079 | 34966 ft | 442 kts | 161° |
| 2026-04-24 19:11 | 33.64445 | 30.64245 | 34964 ft | 442 kts | 161° |
| 2026-04-24 19:12 | 33.58896 | 30.67405 | 34964 ft | 442 kts | 161° |
| 2026-04-24 19:12 | 33.53345 | 30.70554 | 34960 ft | 441 kts | 161° |
| 2026-04-24 19:13 | 33.48723 | 30.73161 | 34958 ft | 442 kts | 161° |
| 2026-04-24 19:13 | 33.42254 | 30.76812 | 34956 ft | 442 kts | 161° |
| 2026-04-24 19:14 | 33.36693 | 30.79964 | 34956 ft | 442 kts | 161° |
| 2026-04-24 19:14 | 33.31130 | 30.83106 | 34955 ft | 442 kts | 161° |
| 2026-04-24 19:15 | 33.25565 | 30.86243 | 34960 ft | 442 kts | 161° |
| 2026-04-24 19:15 | 33.19990 | 30.89381 | 34958 ft | 442 kts | 161° |
| 2026-04-24 19:16 | 33.11621 | 30.94008 | 34952 ft | 438 kts | 166° |
| 2026-04-24 19:16 | 33.05781 | 30.95475 | 34955 ft | 426 kts | 180° |
| 2026-04-24 19:17 | 32.99872 | 30.96123 | 34949 ft | 426 kts | 180° |
| 2026-04-24 19:17 | 32.94011 | 30.96781 | 34947 ft | 426 kts | 180° |
| 2026-04-24 19:18 | 32.88109 | 30.97448 | 34950 ft | 426 kts | 180° |
| 2026-04-24 19:18 | 32.82205 | 30.98105 | 34946 ft | 426 kts | 180° |
| 2026-04-24 19:19 | 32.76291 | 30.98762 | 34953 ft | 426 kts | 180° |
| 2026-04-24 19:19 | 32.70384 | 30.99419 | 34949 ft | 426 kts | 180° |
| 2026-04-24 19:20 | 32.64478 | 31.00083 | 34947 ft | 426 kts | 180° |
| 2026-04-24 19:20 | 32.58611 | 31.00731 | 34948 ft | 426 kts | 180° |
| 2026-04-24 19:21 | 32.52710 | 31.01388 | 34947 ft | 426 kts | 179° |
| 2026-04-24 19:21 | 32.46819 | 31.02047 | 34946 ft | 425 kts | 179° |
| 2026-04-24 19:22 | 32.40924 | 31.02699 | 34940 ft | 425 kts | 180° |
| 2026-04-24 19:22 | 32.35035 | 31.03344 | 34939 ft | 425 kts | 179° |
| 2026-04-24 19:23 | 32.29073 | 31.04007 | 34945 ft | 425 kts | 179° |
| 2026-04-24 19:23 | 32.23186 | 31.04651 | 34947 ft | 424 kts | 179° |
| 2026-04-24 19:24 | 32.17311 | 31.05300 | 34951 ft | 424 kts | 179° |
| 2026-04-24 19:24 | 32.11362 | 31.05959 | 34951 ft | 424 kts | 179° |
| 2026-04-24 19:25 | 32.05525 | 31.06600 | 34953 ft | 423 kts | 179° |
| 2026-04-24 19:25 | 31.99623 | 31.07245 | 34956 ft | 423 kts | 179° |
| 2026-04-24 19:26 | 31.94665 | 31.07779 | 34947 ft | 423 kts | 179° |
| 2026-04-24 19:26 | 31.88598 | 31.08425 | 34947 ft | 423 kts | 179° |
| 2026-04-24 19:27 | 31.82862 | 31.09032 | 34935 ft | 423 kts | 179° |
| 2026-04-24 19:27 | 31.77000 | 31.09662 | 34929 ft | 423 kts | 179° |
| 2026-04-24 19:28 | 31.71135 | 31.10297 | 34929 ft | 424 kts | 179° |
| 2026-04-24 19:28 | 31.65336 | 31.10920 | 34927 ft | 424 kts | 179° |
| 2026-04-24 19:29 | 31.56404 | 31.11883 | 34923 ft | 424 kts | 179° |
| 2026-04-24 19:30 | 31.50531 | 31.12574 | 34926 ft | 425 kts | 176° |
| 2026-04-24 19:30 | 31.44595 | 31.13664 | 34922 ft | 427 kts | 174° |
| 2026-04-24 19:31 | 31.38732 | 31.14879 | 34920 ft | 427 kts | 174° |
| 2026-04-24 19:31 | 31.32918 | 31.16020 | 34914 ft | 427 kts | 175° |
| 2026-04-24 19:32 | 31.27049 | 31.17116 | 34910 ft | 427 kts | 175° |
| 2026-04-24 19:32 | 31.21189 | 31.18192 | 34907 ft | 427 kts | 175° |
| 2026-04-24 19:33 | 31.15321 | 31.19274 | 34904 ft | 427 kts | 175° |
| 2026-04-24 19:33 | 31.09445 | 31.20371 | 34905 ft | 428 kts | 175° |
| 2026-04-24 19:34 | 31.03556 | 31.21477 | 34904 ft | 429 kts | 175° |
| 2026-04-24 19:34 | 30.97698 | 31.22565 | 34903 ft | 429 kts | 175° |
| 2026-04-24 19:35 | 30.91801 | 31.23650 | 34901 ft | 429 kts | 175° |
| 2026-04-24 19:35 | 30.85866 | 31.24750 | 34894 ft | 430 kts | 175° |
| 2026-04-24 19:36 | 30.79991 | 31.25836 | 34896 ft | 430 kts | 175° |
| 2026-04-24 19:36 | 30.74085 | 31.26928 | 34889 ft | 430 kts | 175° |
| 2026-04-24 19:37 | 30.68166 | 31.28028 | 34895 ft | 431 kts | 175° |
| 2026-04-24 19:37 | 30.62243 | 31.29120 | 34886 ft | 431 kts | 175° |
| 2026-04-24 19:38 | 30.56312 | 31.30203 | 34890 ft | 431 kts | 175° |
| 2026-04-24 19:38 | 30.50385 | 31.31290 | 34882 ft | 432 kts | 175° |
| 2026-04-24 19:39 | 30.44458 | 31.32382 | 34887 ft | 432 kts | 175° |
| 2026-04-24 19:39 | 30.38559 | 31.33470 | 34884 ft | 433 kts | 175° |
| 2026-04-24 19:40 | 30.32604 | 31.34569 | 34889 ft | 433 kts | 175° |
| 2026-04-24 19:40 | 30.26653 | 31.35662 | 34898 ft | 434 kts | 175° |
| 2026-04-24 19:41 | 30.20687 | 31.36749 | 34906 ft | 434 kts | 175° |
| 2026-04-24 19:41 | 30.14710 | 31.37835 | 34905 ft | 435 kts | 175° |
| 2026-04-24 19:42 | 30.08847 | 31.39699 | 34899 ft | 445 kts | 160° |
| 2026-04-24 19:42 | 30.03640 | 31.43616 | 34900 ft | 454 kts | 148° |
| 2026-04-24 19:43 | 29.98563 | 31.47975 | 34894 ft | 454 kts | 149° |
| 2026-04-24 19:43 | 29.93481 | 31.52298 | 34888 ft | 455 kts | 149° |
| 2026-04-24 19:44 | 29.88392 | 31.56619 | 34878 ft | 455 kts | 149° |
| 2026-04-24 19:44 | 29.83291 | 31.60949 | 34871 ft | 455 kts | 149° |
| 2026-04-24 19:45 | 29.78194 | 31.65285 | 34865 ft | 456 kts | 149° |
| 2026-04-24 19:45 | 29.73129 | 31.69598 | 34866 ft | 456 kts | 149° |
| 2026-04-24 19:46 | 29.68016 | 31.73942 | 34867 ft | 456 kts | 149° |
| 2026-04-24 19:46 | 29.62903 | 31.78274 | 34865 ft | 457 kts | 149° |
| 2026-04-24 19:47 | 29.57757 | 31.82623 | 34866 ft | 457 kts | 149° |
| 2026-04-24 19:47 | 29.52616 | 31.86968 | 34861 ft | 457 kts | 149° |
| 2026-04-24 19:48 | 29.47481 | 31.91289 | 34867 ft | 458 kts | 149° |
| 2026-04-24 19:48 | 29.39763 | 31.97782 | 34866 ft | 459 kts | 149° |
| 2026-04-24 19:49 | 29.29467 | 32.06438 | 34868 ft | 459 kts | 149° |
| 2026-04-24 19:50 | 29.19078 | 32.15142 | 34869 ft | 459 kts | 149° |
| 2026-04-24 19:51 | 29.11337 | 32.21615 | 34866 ft | 459 kts | 149° |
| 2026-04-24 19:52 | 29.03628 | 32.28055 | 34865 ft | 460 kts | 149° |
| 2026-04-24 19:52 | 28.98462 | 32.32359 | 34862 ft | 460 kts | 149° |
| 2026-04-24 19:53 | 28.93291 | 32.36658 | 34866 ft | 460 kts | 149° |
| 2026-04-24 19:54 | 28.85521 | 32.43104 | 34861 ft | 461 kts | 149° |
| 2026-04-24 19:54 | 28.80341 | 32.47400 | 34865 ft | 461 kts | 149° |
| 2026-04-24 19:55 | 28.76911 | 32.50253 | 34858 ft | 461 kts | 149° |
| 2026-04-24 19:55 | 28.69994 | 32.55989 | 34868 ft | 462 kts | 149° |
| 2026-04-24 19:56 | 28.64786 | 32.60287 | 34864 ft | 463 kts | 149° |
| 2026-04-24 19:56 | 28.59565 | 32.64598 | 34855 ft | 464 kts | 150° |
| 2026-04-24 19:57 | 28.54340 | 32.68903 | 34847 ft | 464 kts | 150° |
| 2026-04-24 19:57 | 28.49109 | 32.73211 | 34833 ft | 465 kts | 150° |
| 2026-04-24 19:58 | 28.43862 | 32.77527 | 34823 ft | 465 kts | 150° |
| 2026-04-24 19:58 | 28.39393 | 32.81197 | 34823 ft | 466 kts | 150° |
| 2026-04-24 19:59 | 28.34136 | 32.85503 | 34824 ft | 467 kts | 150° |
| 2026-04-24 19:59 | 28.28868 | 32.89822 | 34820 ft | 468 kts | 150° |
| 2026-04-24 20:00 | 28.23591 | 32.94144 | 34819 ft | 468 kts | 150° |
| 2026-04-24 20:00 | 28.18295 | 32.98470 | 34815 ft | 469 kts | 150° |
| 2026-04-24 20:01 | 28.13014 | 33.02763 | 34816 ft | 470 kts | 151° |
| 2026-04-24 20:01 | 28.07700 | 33.07097 | 34813 ft | 471 kts | 151° |
| 2026-04-24 20:02 | 28.02376 | 33.11435 | 34809 ft | 472 kts | 151° |
| 2026-04-24 20:02 | 27.97038 | 33.15787 | 34803 ft | 473 kts | 151° |
| 2026-04-24 20:03 | 27.91704 | 33.20132 | 34814 ft | 473 kts | 151° |
| 2026-04-24 20:03 | 27.86391 | 33.24433 | 34808 ft | 473 kts | 151° |
| 2026-04-24 20:04 | 27.81038 | 33.28771 | 34805 ft | 474 kts | 151° |
| 2026-04-24 20:04 | 27.75669 | 33.33126 | 34807 ft | 475 kts | 151° |
| 2026-04-24 20:05 | 27.70296 | 33.37470 | 34804 ft | 475 kts | 152° |
| 2026-04-24 20:05 | 27.64917 | 33.41804 | 34802 ft | 475 kts | 152° |
| 2026-04-24 20:06 | 27.59531 | 33.46142 | 34806 ft | 476 kts | 152° |
| 2026-04-24 20:06 | 27.54146 | 33.50474 | 34804 ft | 476 kts | 152° |
| 2026-04-24 20:07 | 27.49669 | 33.54082 | 34802 ft | 476 kts | 152° |
| 2026-04-24 20:07 | 27.43412 | 33.59109 | 34806 ft | 476 kts | 152° |
| 2026-04-24 20:08 | 27.38010 | 33.63440 | 34809 ft | 476 kts | 152° |
| 2026-04-24 20:08 | 27.32617 | 33.67774 | 34814 ft | 477 kts | 152° |
| 2026-04-24 20:09 | 27.27101 | 33.72187 | 34819 ft | 477 kts | 152° |
| 2026-04-24 20:09 | 27.21712 | 33.76544 | 34817 ft | 481 kts | 148° |
| 2026-04-24 20:09 | 27.19230 | 33.79198 | 34818 ft | 491 kts | 137° |
| 2026-04-24 20:10 | 27.17176 | 33.82295 | 34812 ft | 501 kts | 127° |
| 2026-04-24 20:10 | 27.14285 | 33.89502 | 34814 ft | 510 kts | 116° |
| 2026-04-24 20:11 | 27.11653 | 33.96907 | 34816 ft | 510 kts | 117° |
| 2026-04-24 20:11 | 27.09014 | 34.04247 | 34803 ft | 511 kts | 117° |
| 2026-04-24 20:12 | 27.06367 | 34.11645 | 34802 ft | 511 kts | 117° |
| 2026-04-24 20:12 | 27.03722 | 34.19050 | 34794 ft | 512 kts | 117° |
| 2026-04-24 20:13 | 27.01068 | 34.26471 | 34796 ft | 512 kts | 117° |
| 2026-04-24 20:13 | 26.98409 | 34.33882 | 34795 ft | 513 kts | 117° |
| 2026-04-24 20:14 | 26.95743 | 34.41292 | 34794 ft | 513 kts | 117° |
| 2026-04-24 20:14 | 26.93082 | 34.48670 | 34798 ft | 514 kts | 117° |
| 2026-04-24 20:15 | 26.90393 | 34.56092 | 34796 ft | 515 kts | 117° |
| 2026-04-24 20:15 | 26.87704 | 34.63534 | 34800 ft | 515 kts | 117° |
| 2026-04-24 20:16 | 26.85009 | 34.70966 | 34802 ft | 516 kts | 117° |
| 2026-04-24 20:16 | 26.82298 | 34.78411 | 34802 ft | 516 kts | 117° |
| 2026-04-24 20:17 | 26.79592 | 34.85851 | 34810 ft | 516 kts | 117° |
| 2026-04-24 20:17 | 26.75535 | 34.96966 | 34810 ft | 517 kts | 118° |
| 2026-04-24 20:18 | 26.72815 | 35.04407 | 34814 ft | 517 kts | 118° |
| 2026-04-24 20:18 | 26.70090 | 35.11858 | 34814 ft | 517 kts | 118° |
| 2026-04-24 20:19 | 26.67361 | 35.19293 | 34812 ft | 517 kts | 118° |
| 2026-04-24 20:19 | 26.64631 | 35.26725 | 34811 ft | 517 kts | 118° |
| 2026-04-24 20:20 | 26.61900 | 35.34155 | 34812 ft | 517 kts | 118° |
| 2026-04-24 20:20 | 26.59177 | 35.41537 | 34809 ft | 517 kts | 118° |
| 2026-04-24 20:21 | 26.56436 | 35.48956 | 34814 ft | 517 kts | 118° |
| 2026-04-24 20:21 | 26.53645 | 35.56347 | 34815 ft | 516 kts | 119° |
| 2026-04-24 20:22 | 26.50805 | 35.63712 | 34810 ft | 516 kts | 119° |
| 2026-04-24 20:22 | 26.47969 | 35.71089 | 34807 ft | 516 kts | 119° |
| 2026-04-24 20:23 | 26.45149 | 35.78458 | 34807 ft | 517 kts | 119° |
| 2026-04-24 20:23 | 26.42328 | 35.85826 | 34808 ft | 516 kts | 119° |
| 2026-04-24 20:24 | 26.39494 | 35.93183 | 34806 ft | 516 kts | 120° |
| 2026-04-24 20:24 | 26.36647 | 36.00546 | 34806 ft | 516 kts | 120° |
| 2026-04-24 20:25 | 26.33831 | 36.07850 | 34803 ft | 516 kts | 120° |
| 2026-04-24 20:25 | 26.30994 | 36.15203 | 34795 ft | 516 kts | 120° |
| 2026-04-24 20:26 | 26.28145 | 36.22539 | 34793 ft | 516 kts | 120° |
| 2026-04-24 20:26 | 26.25295 | 36.29874 | 34793 ft | 516 kts | 120° |
| 2026-04-24 20:27 | 26.22448 | 36.37200 | 34789 ft | 515 kts | 120° |
| 2026-04-24 20:27 | 26.19702 | 36.44582 | 34788 ft | 521 kts | 113° |
| 2026-04-24 20:28 | 26.18512 | 36.52625 | 34790 ft | 534 kts | 94° |
| 2026-04-24 20:28 | 26.19146 | 36.60888 | 34789 ft | 538 kts | 86° |
| 2026-04-24 20:29 | 26.19986 | 36.69172 | 34789 ft | 538 kts | 86° |
| 2026-04-24 20:29 | 26.20805 | 36.77394 | 34795 ft | 538 kts | 86° |
| 2026-04-24 20:30 | 26.21617 | 36.85677 | 34809 ft | 538 kts | 86° |
| 2026-04-24 20:30 | 26.22429 | 36.93963 | 34813 ft | 539 kts | 86° |
| 2026-04-24 20:31 | 26.23247 | 37.02266 | 34826 ft | 539 kts | 86° |
| 2026-04-24 20:31 | 26.24061 | 37.10558 | 34839 ft | 539 kts | 87° |
| 2026-04-24 20:32 | 26.24866 | 37.18853 | 34853 ft | 539 kts | 87° |
| 2026-04-24 20:32 | 26.25659 | 37.27142 | 34877 ft | 539 kts | 87° |
| 2026-04-24 20:33 | 26.26441 | 37.35390 | 34873 ft | 538 kts | 87° |
| 2026-04-24 20:33 | 26.27224 | 37.43684 | 34876 ft | 539 kts | 87° |
| 2026-04-24 20:34 | 26.28009 | 37.51984 | 34886 ft | 539 kts | 87° |
| 2026-04-24 20:34 | 26.28793 | 37.60296 | 34890 ft | 540 kts | 87° |
| 2026-04-24 20:35 | 26.29568 | 37.68621 | 34894 ft | 539 kts | 87° |
| 2026-04-24 20:35 | 26.30341 | 37.76928 | 34894 ft | 539 kts | 87° |
| 2026-04-24 20:36 | 26.31111 | 37.85236 | 34891 ft | 539 kts | 87° |
| 2026-04-24 20:36 | 26.31872 | 37.93543 | 34894 ft | 539 kts | 88° |
| 2026-04-24 20:37 | 26.32621 | 38.01858 | 34892 ft | 538 kts | 88° |
| 2026-04-24 20:37 | 26.33374 | 38.10158 | 34900 ft | 539 kts | 87° |
| 2026-04-24 20:38 | 26.34128 | 38.18459 | 34912 ft | 538 kts | 88° |
| 2026-04-24 20:38 | 26.34869 | 38.26757 | 34911 ft | 538 kts | 88° |
| 2026-04-24 20:39 | 26.35610 | 38.35012 | 34906 ft | 538 kts | 88° |
| 2026-04-24 20:39 | 26.36336 | 38.43307 | 34914 ft | 538 kts | 88° |
| 2026-04-24 20:40 | 26.37044 | 38.51600 | 34916 ft | 537 kts | 88° |
| 2026-04-24 20:40 | 26.37767 | 38.59911 | 34923 ft | 538 kts | 88° |
| 2026-04-24 20:41 | 26.38490 | 38.68206 | 34921 ft | 538 kts | 89° |
| 2026-04-24 20:41 | 26.39196 | 38.76505 | 34925 ft | 538 kts | 89° |
| 2026-04-24 20:42 | 26.39894 | 38.84757 | 34926 ft | 538 kts | 89° |
| 2026-04-24 20:42 | 26.40600 | 38.93070 | 34931 ft | 539 kts | 89° |
| 2026-04-24 20:43 | 26.41304 | 39.01397 | 34928 ft | 539 kts | 89° |
| 2026-04-24 20:43 | 26.42000 | 39.09713 | 34925 ft | 539 kts | 89° |
| 2026-04-24 20:44 | 26.42683 | 39.18031 | 34930 ft | 539 kts | 89° |
| 2026-04-24 20:44 | 26.43363 | 39.26349 | 34929 ft | 538 kts | 89° |
| 2026-04-24 20:45 | 26.43921 | 39.34621 | 34928 ft | 537 kts | 91° |
| 2026-04-24 20:45 | 26.44283 | 39.42923 | 34932 ft | 535 kts | 92° |
| 2026-04-24 20:46 | 26.44620 | 39.51217 | 34941 ft | 535 kts | 92° |
| 2026-04-24 20:46 | 26.45022 | 39.59512 | 34946 ft | 535 kts | 91° |
| 2026-04-24 20:47 | 26.45450 | 39.67792 | 34954 ft | 534 kts | 91° |
| 2026-04-24 20:47 | 26.45855 | 39.76058 | 34962 ft | 533 kts | 92° |
| 2026-04-24 20:48 | 26.46236 | 39.84269 | 34971 ft | 533 kts | 92° |
| 2026-04-24 20:48 | 26.46623 | 39.92515 | 34975 ft | 532 kts | 92° |
| 2026-04-24 20:49 | 26.47016 | 40.00774 | 34979 ft | 532 kts | 92° |
| 2026-04-24 20:49 | 26.47392 | 40.09007 | 34984 ft | 531 kts | 92° |
| 2026-04-24 20:50 | 26.47759 | 40.17240 | 34980 ft | 531 kts | 92° |
| 2026-04-24 20:50 | 26.48126 | 40.25490 | 34981 ft | 531 kts | 92° |
| 2026-04-24 20:51 | 26.48486 | 40.33654 | 34986 ft | 530 kts | 92° |
| 2026-04-24 20:51 | 26.48847 | 40.41871 | 34987 ft | 530 kts | 92° |
| 2026-04-24 20:52 | 26.49200 | 40.50079 | 34994 ft | 529 kts | 93° |
| 2026-04-24 20:52 | 26.49549 | 40.58293 | 34995 ft | 529 kts | 93° |
| 2026-04-24 20:53 | 26.49893 | 40.66486 | 35002 ft | 528 kts | 93° |
| 2026-04-24 20:53 | 26.50231 | 40.74669 | 35007 ft | 528 kts | 93° |
| 2026-04-24 20:54 | 26.50558 | 40.82788 | 35011 ft | 527 kts | 93° |
| 2026-04-24 20:54 | 26.50877 | 40.90966 | 35013 ft | 526 kts | 94° |
| 2026-04-24 20:55 | 26.51199 | 40.99124 | 35017 ft | 526 kts | 94° |
| 2026-04-24 20:55 | 26.51230 | 41.07236 | 35017 ft | 518 kts | 101° |
| 2026-04-24 20:56 | 26.50678 | 41.15247 | 35015 ft | 517 kts | 102° |
| 2026-04-24 20:56 | 26.50112 | 41.23206 | 35010 ft | 517 kts | 102° |
| 2026-04-24 20:57 | 26.49542 | 41.31203 | 35011 ft | 517 kts | 102° |
| 2026-04-24 20:57 | 26.48970 | 41.39194 | 35013 ft | 516 kts | 102° |
| 2026-04-24 20:58 | 26.48385 | 41.47182 | 35015 ft | 516 kts | 102° |
| 2026-04-24 20:58 | 26.47904 | 41.53822 | 35014 ft | 516 kts | 102° |
| 2026-04-24 20:59 | 26.47320 | 41.61803 | 35016 ft | 516 kts | 102° |
| 2026-04-24 20:59 | 26.46629 | 41.71091 | 35006 ft | 516 kts | 102° |
| 2026-04-24 21:00 | 26.46039 | 41.79080 | 35005 ft | 516 kts | 102° |
| 2026-04-24 21:00 | 26.45547 | 41.85708 | 35005 ft | 517 kts | 102° |
| 2026-04-24 21:01 | 26.44945 | 41.93696 | 34999 ft | 517 kts | 102° |
| 2026-04-24 21:01 | 26.44337 | 42.01699 | 34994 ft | 517 kts | 102° |
| 2026-04-24 21:02 | 26.43725 | 42.09692 | 35002 ft | 517 kts | 102° |
| 2026-04-24 21:02 | 26.43105 | 42.17682 | 35011 ft | 517 kts | 102° |
| 2026-04-24 21:03 | 26.42483 | 42.25612 | 35016 ft | 517 kts | 102° |
| 2026-04-24 21:03 | 26.41860 | 42.33603 | 35022 ft | 516 kts | 102° |
| 2026-04-24 21:04 | 26.41240 | 42.41579 | 35024 ft | 516 kts | 102° |
| 2026-04-24 21:04 | 26.40617 | 42.49535 | 35024 ft | 514 kts | 102° |
| 2026-04-24 21:05 | 26.39981 | 42.57471 | 35030 ft | 513 kts | 102° |
| 2026-04-24 21:05 | 26.39340 | 42.65348 | 35035 ft | 512 kts | 102° |
| 2026-04-24 21:06 | 26.38700 | 42.73252 | 35038 ft | 512 kts | 102° |
| 2026-04-24 21:06 | 26.38058 | 42.81143 | 35036 ft | 511 kts | 102° |
| 2026-04-24 21:07 | 26.37410 | 42.89017 | 35036 ft | 509 kts | 102° |
| 2026-04-24 21:07 | 26.36763 | 42.96831 | 35021 ft | 508 kts | 102° |
| 2026-04-24 21:08 | 26.36111 | 43.04671 | 35027 ft | 508 kts | 102° |
| 2026-04-24 21:08 | 26.35457 | 43.12507 | 35033 ft | 507 kts | 102° |
| 2026-04-24 21:09 | 26.34796 | 43.20329 | 35032 ft | 507 kts | 102° |
| 2026-04-24 21:09 | 26.34138 | 43.28140 | 35032 ft | 506 kts | 102° |
| 2026-04-24 21:10 | 26.33466 | 43.35991 | 35026 ft | 505 kts | 102° |
| 2026-04-24 21:10 | 26.32795 | 43.43737 | 35026 ft | 504 kts | 102° |
| 2026-04-24 21:11 | 26.32128 | 43.51514 | 35026 ft | 504 kts | 102° |
| 2026-04-24 21:11 | 26.31453 | 43.59282 | 35026 ft | 503 kts | 102° |
| 2026-04-24 21:12 | 26.30764 | 43.67035 | 35027 ft | 502 kts | 102° |
| 2026-04-24 21:12 | 26.30014 | 43.74765 | 35022 ft | 498 kts | 107° |
| 2026-04-24 21:13 | 26.27974 | 43.81963 | 35017 ft | 480 kts | 123° |
| 2026-04-24 21:13 | 26.24941 | 43.88571 | 35010 ft | 479 kts | 124° |
| 2026-04-24 21:14 | 26.21900 | 43.95171 | 35004 ft | 479 kts | 124° |
| 2026-04-24 21:14 | 26.18879 | 44.01737 | 34998 ft | 480 kts | 124° |
| 2026-04-24 21:15 | 26.15830 | 44.08350 | 34996 ft | 481 kts | 124° |
| 2026-04-24 21:15 | 26.12769 | 44.14973 | 34999 ft | 482 kts | 124° |
| 2026-04-24 21:16 | 26.09700 | 44.21604 | 35001 ft | 482 kts | 124° |
| 2026-04-24 21:16 | 26.06630 | 44.28240 | 35009 ft | 483 kts | 124° |
| 2026-04-24 21:17 | 26.03577 | 44.34836 | 35016 ft | 483 kts | 124° |
| 2026-04-24 21:17 | 26.00496 | 44.41473 | 35021 ft | 483 kts | 124° |
| 2026-04-24 21:18 | 25.97409 | 44.48108 | 35025 ft | 483 kts | 124° |
| 2026-04-24 21:18 | 25.94313 | 44.54745 | 35028 ft | 483 kts | 124° |
| 2026-04-24 21:19 | 25.91215 | 44.61370 | 35036 ft | 483 kts | 124° |
| 2026-04-24 21:19 | 25.88118 | 44.67996 | 35040 ft | 484 kts | 124° |
| 2026-04-24 21:20 | 25.83492 | 44.77888 | 35044 ft | 483 kts | 124° |
| 2026-04-24 21:21 | 25.80385 | 44.84505 | 35044 ft | 483 kts | 124° |
| 2026-04-24 21:21 | 25.77278 | 44.91119 | 35046 ft | 484 kts | 123° |
| 2026-04-24 21:22 | 25.74164 | 44.97734 | 35043 ft | 483 kts | 123° |
| 2026-04-24 21:22 | 25.72616 | 45.01017 | 34901 ft | 474 kts | 123° |
| 2026-04-24 21:22 | 25.71115 | 45.04209 | 34775 ft | 460 kts | 123° |
| 2026-04-24 21:22 | 25.69662 | 45.07301 | 34650 ft | 447 kts | 123° |
| 2026-04-24 21:23 | 25.68262 | 45.10273 | 34509 ft | 435 kts | 124° |
| 2026-04-24 21:23 | 25.66869 | 45.13221 | 34206 ft | 429 kts | 124° |
| 2026-04-24 21:23 | 25.65485 | 45.16141 | 33812 ft | 425 kts | 124° |
| 2026-04-24 21:23 | 25.64113 | 45.19029 | 33374 ft | 422 kts | 124° |
| 2026-04-24 21:24 | 25.62748 | 45.21905 | 32929 ft | 420 kts | 124° |
| 2026-04-24 21:24 | 25.61393 | 45.24762 | 32488 ft | 418 kts | 124° |
| 2026-04-24 21:24 | 25.60044 | 45.27602 | 32057 ft | 415 kts | 123° |
| 2026-04-24 21:24 | 25.58705 | 45.30424 | 31647 ft | 413 kts | 123° |
| 2026-04-24 21:25 | 25.57373 | 45.33238 | 31233 ft | 411 kts | 123° |
| 2026-04-24 21:25 | 25.56050 | 45.36036 | 30825 ft | 409 kts | 123° |
| 2026-04-24 21:25 | 25.54749 | 45.38781 | 30447 ft | 407 kts | 123° |
| 2026-04-24 21:25 | 25.53436 | 45.41546 | 30051 ft | 405 kts | 123° |
| 2026-04-24 21:26 | 25.52129 | 45.44294 | 29608 ft | 402 kts | 123° |
| 2026-04-24 21:26 | 25.50831 | 45.47023 | 29180 ft | 399 kts | 123° |
| 2026-04-24 21:26 | 25.49541 | 45.49736 | 28745 ft | 396 kts | 123° |
| 2026-04-24 21:26 | 25.48266 | 45.52420 | 28307 ft | 394 kts | 123° |
| 2026-04-24 21:27 | 25.46995 | 45.55092 | 27886 ft | 391 kts | 123° |
| 2026-04-24 21:27 | 25.45731 | 45.57747 | 27477 ft | 388 kts | 123° |
| 2026-04-24 21:27 | 25.44474 | 45.60378 | 27063 ft | 385 kts | 123° |
| 2026-04-24 21:27 | 25.43224 | 45.62990 | 26660 ft | 383 kts | 123° |
| 2026-04-24 21:28 | 25.41998 | 45.65549 | 26270 ft | 380 kts | 123° |
| 2026-04-24 21:28 | 25.40768 | 45.68120 | 25876 ft | 378 kts | 123° |
| 2026-04-24 21:28 | 25.39544 | 45.70685 | 25483 ft | 375 kts | 123° |
| 2026-04-24 21:28 | 25.38330 | 45.73225 | 25097 ft | 373 kts | 123° |
| 2026-04-24 21:29 | 25.37120 | 45.75756 | 24716 ft | 371 kts | 122° |
| 2026-04-24 21:29 | 25.36159 | 45.78411 | 24350 ft | 374 kts | 109° |
| 2026-04-24 21:29 | 25.35690 | 45.81243 | 23984 ft | 376 kts | 97° |
| 2026-04-24 21:29 | 25.35611 | 45.84131 | 23616 ft | 375 kts | 94° |
| 2026-04-24 21:30 | 25.35561 | 45.87009 | 23185 ft | 373 kts | 94° |
| 2026-04-24 21:30 | 25.35510 | 45.89870 | 22781 ft | 371 kts | 94° |
| 2026-04-24 21:30 | 25.35458 | 45.92711 | 22389 ft | 369 kts | 94° |
| 2026-04-24 21:30 | 25.35404 | 45.95531 | 22019 ft | 367 kts | 94° |
| 2026-04-24 21:31 | 25.35350 | 45.98344 | 21642 ft | 365 kts | 94° |
| 2026-04-24 21:31 | 25.35296 | 46.01104 | 21282 ft | 362 kts | 95° |
| 2026-04-24 21:31 | 25.35241 | 46.03919 | 20927 ft | 361 kts | 95° |
| 2026-04-24 21:31 | 25.35187 | 46.06645 | 20584 ft | 359 kts | 95° |
| 2026-04-24 21:32 | 25.35118 | 46.09383 | 20236 ft | 356 kts | 98° |
| 2026-04-24 21:32 | 25.34573 | 46.12000 | 19909 ft | 343 kts | 119° |
| 2026-04-24 21:32 | 25.33362 | 46.14188 | 19497 ft | 327 kts | 138° |
| 2026-04-24 21:32 | 25.31692 | 46.15778 | 18920 ft | 311 kts | 156° |
| 2026-04-24 21:33 | 25.29826 | 46.16962 | 18327 ft | 308 kts | 157° |
| 2026-04-24 21:33 | 25.27975 | 46.18135 | 17710 ft | 305 kts | 156° |
| 2026-04-24 21:33 | 25.26150 | 46.19299 | 17130 ft | 301 kts | 156° |
| 2026-04-24 21:33 | 25.24349 | 46.20451 | 16575 ft | 297 kts | 156° |
| 2026-04-24 21:34 | 25.22578 | 46.21586 | 16035 ft | 293 kts | 156° |
| 2026-04-24 21:34 | 25.20851 | 46.22693 | 15513 ft | 289 kts | 156° |
| 2026-04-24 21:34 | 25.19083 | 46.23778 | 14773 ft | 289 kts | 160° |
| 2026-04-24 21:34 | 25.17216 | 46.24701 | 13706 ft | 301 kts | 162° |
| 2026-04-24 21:35 | 25.15235 | 46.25615 | 12434 ft | 314 kts | 161° |
| 2026-04-24 21:35 | 25.13424 | 46.26860 | 12102 ft | 306 kts | 142° |
| 2026-04-24 21:35 | 25.12137 | 46.28648 | 11969 ft | 293 kts | 123° |
| 2026-04-24 21:35 | 25.11500 | 46.30752 | 11668 ft | 290 kts | 102° |
| 2026-04-24 21:36 | 25.11582 | 46.32968 | 11194 ft | 293 kts | 79° |
| 2026-04-24 21:36 | 25.12321 | 46.35071 | 10668 ft | 293 kts | 68° |
| 2026-04-24 21:36 | 25.13125 | 46.37010 | 10460 ft | 293 kts | 69° |
| 2026-04-24 21:36 | 25.13943 | 46.39067 | 10227 ft | 291 kts | 75° |
| 2026-04-24 21:37 | 25.14213 | 46.41225 | 9998 ft | 281 kts | 100° |
| 2026-04-24 21:37 | 25.13698 | 46.43235 | 9989 ft | 270 kts | 123° |
| 2026-04-24 21:37 | 25.12551 | 46.44842 | 10032 ft | 271 kts | 145° |
| 2026-04-24 21:37 | 25.11012 | 46.46086 | 10060 ft | 282 kts | 149° |
| 2026-04-24 21:38 | 25.09374 | 46.47257 | 10077 ft | 273 kts | 155° |
| 2026-04-24 21:38 | 25.07743 | 46.48230 | 10093 ft | 262 kts | 156° |
| 2026-04-24 21:38 | 25.06134 | 46.49152 | 10125 ft | 260 kts | 156° |
| 2026-04-24 21:38 | 25.04527 | 46.50079 | 10148 ft | 260 kts | 155° |
| 2026-04-24 21:39 | 25.02948 | 46.51056 | 10175 ft | 261 kts | 154° |
| 2026-04-24 21:39 | 25.01373 | 46.52060 | 10198 ft | 261 kts | 153° |
| 2026-04-24 21:39 | 24.99801 | 46.53072 | 10220 ft | 261 kts | 153° |
| 2026-04-24 21:39 | 24.98248 | 46.54069 | 10247 ft | 262 kts | 153° |
| 2026-04-24 21:40 | 24.96651 | 46.55093 | 10272 ft | 262 kts | 153° |
| 2026-04-24 21:40 | 24.95097 | 46.56084 | 10300 ft | 263 kts | 153° |
| 2026-04-24 21:40 | 24.93515 | 46.57090 | 10318 ft | 262 kts | 153° |
| 2026-04-24 21:40 | 24.91938 | 46.58092 | 10344 ft | 262 kts | 153° |
| 2026-04-24 21:41 | 24.90359 | 46.59092 | 10361 ft | 262 kts | 154° |
| 2026-04-24 21:41 | 24.88770 | 46.60098 | 10391 ft | 271 kts | 153° |
| 2026-04-24 21:41 | 24.87090 | 46.61165 | 10411 ft | 283 kts | 153° |
| 2026-04-24 21:41 | 24.85406 | 46.62233 | 10425 ft | 272 kts | 153° |
| 2026-04-24 21:42 | 24.83793 | 46.63254 | 10441 ft | 264 kts | 154° |
| 2026-04-24 21:42 | 24.82201 | 46.64255 | 10464 ft | 263 kts | 154° |
| 2026-04-24 21:42 | 24.80631 | 46.65241 | 10485 ft | 263 kts | 154° |
| 2026-04-24 21:42 | 24.79024 | 46.66250 | 10501 ft | 263 kts | 154° |
| 2026-04-24 21:43 | 24.77453 | 46.67238 | 10521 ft | 263 kts | 154° |
| 2026-04-24 21:43 | 24.75856 | 46.68239 | 10385 ft | 264 kts | 154° |
| 2026-04-24 21:43 | 24.74268 | 46.69238 | 10150 ft | 262 kts | 153° |
| 2026-04-24 21:43 | 24.72693 | 46.70233 | 9945 ft | 261 kts | 153° |
| 2026-04-24 21:44 | 24.71116 | 46.71228 | 9819 ft | 261 kts | 153° |
| 2026-04-24 21:44 | 24.69538 | 46.72223 | 9688 ft | 261 kts | 153° |
| 2026-04-24 21:44 | 24.67966 | 46.73213 | 9556 ft | 260 kts | 153° |
| 2026-04-24 21:44 | 24.66396 | 46.74200 | 9424 ft | 260 kts | 153° |
| 2026-04-24 21:45 | 24.64831 | 46.75185 | 9295 ft | 259 kts | 153° |
| 2026-04-24 21:45 | 24.63270 | 46.76168 | 9167 ft | 258 kts | 153° |
| 2026-04-24 21:45 | 24.61737 | 46.77131 | 9041 ft | 257 kts | 153° |
| 2026-04-24 21:45 | 24.60186 | 46.78103 | 8915 ft | 257 kts | 153° |
| 2026-04-24 21:46 | 24.58636 | 46.79071 | 8795 ft | 256 kts | 153° |
| 2026-04-24 21:46 | 24.57088 | 46.80037 | 8665 ft | 255 kts | 153° |
| 2026-04-24 21:46 | 24.55548 | 46.80998 | 8541 ft | 254 kts | 153° |
| 2026-04-24 21:46 | 24.54013 | 46.81956 | 8416 ft | 253 kts | 153° |
| 2026-04-24 21:47 | 24.52487 | 46.82916 | 8292 ft | 253 kts | 153° |
| 2026-04-24 21:47 | 24.51477 | 46.83552 | 8214 ft | 252 kts | 153° |
| 2026-04-24 21:47 | 24.49444 | 46.84834 | 8052 ft | 251 kts | 153° |
| 2026-04-24 21:47 | 24.47931 | 46.85789 | 7929 ft | 251 kts | 153° |
| 2026-04-24 21:48 | 24.46420 | 46.86740 | 7810 ft | 250 kts | 153° |
| 2026-04-24 21:48 | 24.44936 | 46.87676 | 7691 ft | 249 kts | 153° |
| 2026-04-24 21:48 | 24.43438 | 46.88619 | 7568 ft | 248 kts | 153° |
| 2026-04-24 21:48 | 24.41976 | 46.89536 | 7452 ft | 236 kts | 153° |
| 2026-04-24 21:49 | 24.40584 | 46.90411 | 7329 ft | 225 kts | 153° |
| 2026-04-24 21:49 | 24.39262 | 46.91241 | 7212 ft | 214 kts | 153° |
| 2026-04-24 21:49 | 24.38004 | 46.92032 | 7112 ft | 203 kts | 153° |
| 2026-04-24 21:49 | 24.36786 | 46.92800 | 7021 ft | 201 kts | 151° |
| 2026-04-24 21:50 | 24.35788 | 46.93868 | 6985 ft | 206 kts | 123° |
| 2026-04-24 21:50 | 24.35421 | 46.95403 | 6986 ft | 216 kts | 91° |
| 2026-04-24 21:50 | 24.35875 | 46.96999 | 6983 ft | 226 kts | 64° |
| 2026-04-24 21:50 | 24.36670 | 46.98499 | 6988 ft | 228 kts | 64° |
| 2026-04-24 21:51 | 24.37462 | 47.00000 | 6989 ft | 227 kts | 64° |
| 2026-04-24 21:51 | 24.38307 | 47.01433 | 6987 ft | 230 kts | 49° |
| 2026-04-24 21:51 | 24.39660 | 47.02382 | 6993 ft | 235 kts | 17° |
| 2026-04-24 21:51 | 24.41277 | 47.02458 | 6989 ft | 235 kts | 343° |
| 2026-04-24 21:52 | 24.42741 | 47.01723 | 6998 ft | 233 kts | 327° |
| 2026-04-24 21:52 | 24.44149 | 47.00834 | 6993 ft | 233 kts | 327° |
| 2026-04-24 21:52 | 24.45558 | 46.99944 | 6998 ft | 233 kts | 327° |
| 2026-04-24 21:52 | 24.46963 | 46.99055 | 6993 ft | 234 kts | 327° |
| 2026-04-24 21:53 | 24.48376 | 46.98164 | 6999 ft | 233 kts | 327° |
| 2026-04-24 21:53 | 24.49787 | 46.97280 | 6990 ft | 233 kts | 327° |
| 2026-04-24 21:53 | 24.51197 | 46.96401 | 6991 ft | 233 kts | 327° |
| 2026-04-24 21:53 | 24.52609 | 46.95517 | 6990 ft | 233 kts | 327° |
| 2026-04-24 21:54 | 24.54016 | 46.94633 | 6999 ft | 233 kts | 327° |
| 2026-04-24 21:54 | 24.55424 | 46.93748 | 6997 ft | 233 kts | 327° |
| 2026-04-24 21:54 | 24.56831 | 46.92864 | 6997 ft | 233 kts | 327° |
| 2026-04-24 21:54 | 24.58222 | 46.91989 | 7003 ft | 233 kts | 327° |
| 2026-04-24 21:55 | 24.59628 | 46.91104 | 7003 ft | 233 kts | 327° |
| 2026-04-24 21:55 | 24.61032 | 46.90222 | 7007 ft | 233 kts | 327° |
| 2026-04-24 21:55 | 24.62547 | 46.89610 | 6989 ft | 235 kts | 357° |
| 2026-04-24 21:55 | 24.64185 | 46.89630 | 7009 ft | 237 kts | 0° |
| 2026-04-24 21:56 | 24.65824 | 46.89634 | 6998 ft | 229 kts | 355° |
| 2026-04-24 21:56 | 24.67313 | 46.89250 | 7004 ft | 216 kts | 334° |
| 2026-04-24 21:56 | 24.68641 | 46.88519 | 7018 ft | 213 kts | 327° |
| 2026-04-24 21:56 | 24.69923 | 46.87718 | 7019 ft | 212 kts | 326° |
| 2026-04-24 21:57 | 24.71208 | 46.86906 | 6989 ft | 213 kts | 327° |
| 2026-04-24 21:57 | 24.72488 | 46.86100 | 6825 ft | 212 kts | 327° |
| 2026-04-24 21:57 | 24.73764 | 46.85297 | 6549 ft | 210 kts | 327° |
| 2026-04-24 21:57 | 24.75028 | 46.84501 | 6285 ft | 208 kts | 327° |
| 2026-04-24 21:58 | 24.76258 | 46.83726 | 6019 ft | 205 kts | 328° |
| 2026-04-24 21:58 | 24.77491 | 46.82950 | 5766 ft | 203 kts | 328° |
| 2026-04-24 21:58 | 24.78713 | 46.82180 | 5508 ft | 202 kts | 329° |
| 2026-04-24 21:58 | 24.79923 | 46.81417 | 5261 ft | 199 kts | 329° |
| 2026-04-24 21:59 | 24.81119 | 46.80663 | 5013 ft | 197 kts | 330° |
| 2026-04-24 21:59 | 24.82307 | 46.79914 | 4758 ft | 195 kts | 331° |
| 2026-04-24 21:59 | 24.83472 | 46.79179 | 4517 ft | 190 kts | 331° |
| 2026-04-24 21:59 | 24.84602 | 46.78466 | 4270 ft | 184 kts | 332° |
| 2026-04-24 22:00 | 24.85682 | 46.77784 | 4040 ft | 173 kts | 333° |
| 2026-04-24 22:00 | 24.86692 | 46.77146 | 3826 ft | 163 kts | 333° |
| 2026-04-24 22:00 | 24.87642 | 46.76546 | 3591 ft | 153 kts | 334° |
| 2026-04-24 22:00 | 24.88543 | 46.75979 | 3377 ft | 146 kts | 331° |
| 2026-04-24 22:01 | 24.89394 | 46.75441 | 3183 ft | 141 kts | 329° |
| 2026-04-24 22:01 | 24.90242 | 46.74907 | 3000 ft | 139 kts | 329° |
| 2026-04-24 22:01 | 24.91007 | 46.74423 | 2844 ft | 137 kts | 330° |
| 2026-04-24 22:01 | 24.91847 | 46.73894 | 2675 ft | 142 kts | 333° |
| 2026-04-24 22:02 | 24.92720 | 46.73342 | 2490 ft | 146 kts | 334° |
| 2026-04-24 22:02 | 24.93602 | 46.72784 | 2249 ft | 146 kts | 331° |
| 2026-04-24 22:02 | 24.94483 | 46.72227 | 2117 ft | 146 kts | 332° |
| 2026-04-24 22:02 | 24.95328 | 46.71689 | 2071 ft | 129 kts | 330° |
| 2026-04-24 22:03 | 24.95981 | 46.71281 | 2069 ft | 77 kts | 330° |
| 2026-04-24 22:03 | 24.96297 | 46.71083 | 2068 ft | 32 kts | 330° |
| 2026-04-24 22:03 | 24.96427 | 46.70991 | 2069 ft | 23 kts | 318° |
| 2026-04-24 22:03 | 24.96502 | 46.70883 | 2066 ft | 18 kts | 302° |
| 2026-04-24 22:04 | 24.96532 | 46.70790 | 2074 ft | 5 kts | 278° |
| 2026-04-24 22:04 | 24.96534 | 46.70775 | 2074 ft | 1 kts | 274° |
| 2026-04-24 22:04 | 24.96527 | 46.70707 | 2077 ft | 9 kts | 252° |
| 2026-04-24 22:04 | 24.96506 | 46.70661 | 2049 ft | 4 kts | 242° |
| 2026-04-24 22:05 | 24.96496 | 46.70640 | 2047 ft | 5 kts | 240° |
| 2026-04-24 22:05 | 24.96465 | 46.70581 | 2048 ft | 9 kts | 240° |
| 2026-04-24 22:05 | 24.96439 | 46.70533 | 2048 ft | 6 kts | 239° |
| 2026-04-24 22:05 | 24.96412 | 46.70481 | 2048 ft | 11 kts | 240° |
| 2026-04-24 22:06 | 24.96383 | 46.70423 | 2051 ft | 4 kts | 241° |
| 2026-04-24 22:06 | 24.96373 | 46.70406 | 2050 ft | 4 kts | 229° |
| 2026-04-24 22:06 | 24.96337 | 46.70398 | 2052 ft | 9 kts | 168° |
| 2026-04-24 22:06 | 24.96273 | 46.70435 | 2049 ft | 9 kts | 149° |
| 2026-04-24 22:07 | 24.96221 | 46.70469 | 2051 ft | 9 kts | 150° |
| 2026-04-24 22:07 | 24.96158 | 46.70508 | 2050 ft | 14 kts | 150° |
| 2026-04-24 22:07 | 24.96083 | 46.70556 | 2049 ft | 12 kts | 150° |
| 2026-04-24 22:07 | 24.96018 | 46.70597 | 2049 ft | 9 kts | 154° |
| 2026-04-24 22:08 | 24.95978 | 46.70575 | 2052 ft | 6 kts | 233° |
| 2026-04-24 22:08 | 24.95956 | 46.70541 | 2049 ft | 5 kts | 236° |
| 2026-04-24 22:08 | 24.95939 | 46.70513 | 2049 ft | 4 kts | 235° |
| 2026-04-24 22:08 | 24.95935 | 46.70506 | 2049 ft | 0 kts | 235° |